Аэропорт: Кызылорда. Кызылорда

ICAO: UAOO

METAR:
2019-07-23 18:00:00
UAOO 231800Z 04003MPS CAVOK 24/09 Q1009 NOSIG RMK QFE745/0993
METAR:
2019-07-23 17:00:00
TAF UAOO 231700Z 2318/2403 04004MPS CAVOK